createdAt,value
2023-01-13T00:02:11.231Z,8.80
2023-01-13T00:05:12.928Z,8.78
2023-01-13T00:08:14.545Z,8.79
2023-01-13T00:11:17.784Z,8.75
2023-01-13T00:14:19.438Z,8.72
2023-01-13T00:17:21.134Z,8.70
2023-01-13T00:20:22.829Z,8.65
2023-01-13T00:23:24.458Z,8.68
2023-01-13T00:26:28.730Z,8.65
2023-01-13T00:29:31.878Z,8.70
2023-01-13T00:32:33.684Z,8.70
2023-01-13T00:35:35.227Z,8.73
2023-01-13T00:38:36.927Z,8.76
2023-01-13T00:41:39.899Z,8.71
2023-01-13T00:44:41.517Z,8.68
2023-01-13T00:47:43.249Z,8.64
2023-01-13T00:50:44.862Z,8.66
2023-01-13T00:53:48.261Z,8.60
2023-01-13T00:56:51.208Z,8.61
2023-01-13T00:59:52.874Z,8.57
2023-01-13T01:02:54.491Z,8.65
2023-01-13T01:05:56.681Z,8.52
2023-01-13T01:08:58.496Z,8.58
2023-01-13T01:12:01.482Z,8.51
2023-01-13T01:15:03.521Z,8.39
2023-01-13T01:18:05.136Z,8.43
2023-01-13T01:21:07.571Z,8.35
2023-01-13T01:24:09.742Z,8.38
2023-01-13T01:27:12.744Z,8.30
2023-01-13T01:30:15.341Z,8.22
2023-01-13T01:33:16.958Z,8.24
2023-01-13T01:36:20.477Z,8.24
2023-01-13T01:39:22.109Z,8.17
2023-01-13T01:42:25.103Z,8.16
2023-01-13T01:45:28.039Z,8.16
2023-01-13T01:48:32.844Z,8.09
2023-01-13T01:51:43.937Z,8.08
2023-01-13T01:54:48.600Z,8.27
2023-01-13T01:57:54.289Z,8.21
2023-01-13T02:00:56.133Z,8.13
2023-01-13T02:03:59.689Z,8.07
2023-01-13T02:07:01.868Z,8.07
2023-01-13T02:10:05.840Z,8.00
2023-01-13T02:13:10.947Z,7.95
2023-01-13T02:16:16.896Z,8.03
2023-01-13T02:19:29.675Z,7.86
2023-01-13T02:22:46.626Z,7.94
2023-01-13T02:25:57.718Z,7.83
2023-01-13T02:29:10.790Z,7.91
2023-01-13T02:32:20.052Z,7.87
2023-01-13T02:35:25.045Z,7.94
2023-01-13T02:38:29.998Z,7.78
2023-01-13T02:41:36.183Z,7.87
2023-01-13T02:44:43.032Z,7.73
2023-01-13T02:47:47.716Z,7.71
2023-01-13T02:50:52.107Z,7.69
2023-01-13T02:53:57.716Z,7.67
2023-01-13T02:57:00.317Z,7.64
2023-01-13T03:00:04.646Z,7.58
2023-01-13T03:03:07.389Z,7.42
2023-01-13T03:06:17.348Z,7.66
2023-01-13T03:09:22.778Z,7.53
2023-01-13T03:12:32.179Z,7.59
2023-01-13T03:15:39.883Z,7.32
2023-01-13T03:18:45.794Z,7.32
2023-01-13T03:21:51.840Z,7.16
2023-01-13T03:24:55.742Z,7.26
2023-01-13T03:27:58.363Z,7.21
2023-01-13T03:31:03.339Z,7.31
2023-01-13T03:34:09.853Z,7.27
2023-01-13T03:37:14.157Z,7.20
2023-01-13T03:40:18.496Z,7.11
2023-01-13T03:43:24.263Z,7.24
2023-01-13T03:46:30.053Z,7.05
2023-01-13T03:49:36.530Z,6.97
2023-01-13T03:52:41.280Z,6.93
2023-01-13T03:55:46.882Z,6.85
2023-01-13T03:58:49.290Z,6.97
2023-01-13T04:01:55.631Z,6.90
2023-01-13T04:05:00.145Z,6.89
2023-01-13T04:08:08.979Z,6.97
2023-01-13T04:11:12.678Z,7.01
2023-01-13T04:14:15.863Z,7.05
2023-01-13T04:17:17.769Z,7.05
2023-01-13T04:20:20.508Z,6.99
2023-01-13T04:23:22.201Z,7.11
2023-01-13T04:26:23.639Z,6.99
2023-01-13T04:29:25.037Z,7.03
2023-01-13T04:32:26.463Z,6.74
2023-01-13T04:35:29.279Z,6.87
2023-01-13T04:38:30.776Z,6.93
2023-01-13T04:41:32.201Z,6.81
2023-01-13T04:44:33.840Z,6.75
2023-01-13T04:47:35.246Z,6.71
2023-01-13T04:50:38.120Z,6.83
2023-01-13T04:53:39.657Z,6.78
2023-01-13T04:56:41.078Z,6.76
2023-01-13T04:59:42.490Z,6.76
2023-01-13T05:02:43.951Z,6.71
2023-01-13T05:05:50.927Z,6.73
2023-01-13T05:08:52.344Z,6.68
2023-01-13T05:11:53.769Z,6.71
2023-01-13T05:14:55.256Z,6.72
2023-01-13T05:17:56.866Z,6.63
2023-01-13T05:20:59.609Z,6.55
2023-01-13T05:24:01.047Z,6.57
2023-01-13T05:27:02.475Z,6.49
2023-01-13T05:30:04.759Z,6.38
2023-01-13T05:33:06.193Z,6.32
2023-01-13T05:36:10.257Z,6.55
2023-01-13T05:39:11.653Z,6.55
2023-01-13T05:42:13.442Z,6.49
2023-01-13T05:45:15.057Z,6.46
2023-01-13T05:48:17.467Z,6.40
2023-01-13T05:51:20.926Z,6.59
2023-01-13T05:54:22.333Z,6.56
2023-01-13T05:57:25.051Z,6.47
2023-01-13T06:00:26.526Z,6.45
2023-01-13T06:03:33.685Z,6.69
2023-01-13T06:06:36.460Z,6.71
2023-01-13T06:09:37.941Z,6.80
2023-01-13T06:12:39.357Z,6.89
2023-01-13T06:15:44.963Z,6.83
2023-01-13T06:18:52.876Z,6.69
2023-01-13T06:21:57.264Z,6.53
2023-01-13T06:24:59.031Z,6.45
2023-01-13T06:28:00.602Z,6.41
2023-01-13T06:31:04.595Z,6.42
2023-01-13T06:34:09.215Z,6.46
2023-01-13T06:37:12.894Z,6.50
2023-01-13T06:40:15.040Z,6.55
2023-01-13T06:43:17.200Z,6.51
2023-01-13T06:46:19.067Z,6.48
2023-01-13T06:49:21.690Z,6.54
2023-01-13T06:52:29.317Z,6.57
2023-01-13T06:55:37.284Z,6.58
2023-01-13T06:58:38.747Z,6.50
2023-01-13T07:01:40.486Z,6.54
2023-01-13T07:04:48.308Z,6.49
2023-01-13T07:07:51.053Z,6.54
2023-01-13T07:10:57.558Z,6.56
2023-01-13T07:14:00.636Z,6.59
2023-01-13T07:17:02.620Z,6.55
2023-01-13T07:20:04.308Z,6.52
2023-01-13T07:23:07.165Z,6.52
2023-01-13T07:26:09.651Z,6.57
2023-01-13T07:29:11.551Z,6.62
2023-01-13T07:32:16.166Z,6.58
2023-01-13T07:35:20.549Z,6.55
2023-01-13T07:38:23.449Z,6.69
2023-01-13T07:41:24.885Z,6.71
2023-01-13T07:44:37.156Z,6.59
2023-01-13T07:47:41.312Z,6.49
2023-01-13T07:50:44.224Z,6.56
2023-01-13T07:53:47.058Z,6.59
2023-01-13T07:56:48.706Z,6.51
2023-01-13T07:59:50.108Z,6.38
2023-01-13T08:02:51.669Z,6.46
2023-01-13T08:05:55.936Z,6.54
2023-01-13T08:09:04.652Z,6.72
2023-01-13T08:12:09.550Z,6.68
2023-01-13T08:15:11.285Z,6.73
2023-01-13T08:18:15.786Z,6.62
2023-01-13T08:24:47.965Z,6.71
2023-01-13T08:27:56.015Z,6.76
2023-01-13T08:31:03.279Z,6.77
2023-01-13T08:34:08.587Z,6.83
2023-01-13T08:37:10.179Z,6.72
2023-01-13T08:40:14.234Z,6.83
2023-01-13T08:43:22.349Z,6.98
2023-01-13T08:46:26.975Z,6.84
2023-01-13T08:49:45.245Z,6.79
2023-01-13T08:52:46.659Z,6.82
2023-01-13T08:55:49.453Z,6.80
2023-01-13T08:58:50.867Z,6.81
2023-01-13T09:01:52.454Z,6.90
2023-01-13T09:04:56.468Z,6.95
2023-01-13T09:07:57.957Z,6.99
2023-01-13T09:11:03.107Z,7.05
2023-01-13T09:14:12.085Z,7.03
2023-01-13T09:17:14.029Z,7.06
2023-01-13T09:20:20.961Z,7.08
2023-01-13T09:23:29.410Z,7.11
2023-01-13T09:26:32.210Z,7.17
2023-01-13T09:29:33.885Z,7.16
2023-01-13T09:32:42.041Z,7.20
2023-01-13T09:35:43.426Z,7.27
2023-01-13T09:38:55.449Z,7.24
2023-01-13T09:42:03.154Z,7.22
2023-01-13T09:45:08.439Z,7.13
2023-01-13T09:48:12.656Z,7.14
2023-01-13T09:51:18.026Z,7.15
2023-01-13T09:54:27.351Z,7.15
2023-01-13T09:57:33.145Z,7.26
2023-01-13T10:00:52.434Z,7.24
2023-01-13T10:03:54.182Z,7.32
2023-01-13T10:06:59.750Z,7.19
2023-01-13T10:10:02.072Z,7.17
2023-01-13T10:13:13.540Z,7.15
2023-01-13T10:16:24.085Z,7.10
2023-01-13T10:19:28.091Z,7.06
2023-01-13T10:22:48.088Z,7.09
2023-01-13T10:25:57.139Z,7.11
2023-01-13T10:29:00.560Z,7.18
2023-01-13T10:32:05.460Z,7.24
2023-01-13T10:35:13.471Z,7.31
2023-01-13T10:38:16.786Z,7.33
2023-01-13T10:41:26.588Z,7.38
2023-01-13T10:44:29.449Z,7.45
2023-01-13T10:47:32.470Z,7.45
2023-01-13T10:50:40.570Z,7.45
2023-01-13T10:54:00.700Z,7.45
2023-01-13T10:57:14.035Z,7.50
2023-01-13T11:04:24.723Z,7.52
2023-01-13T11:07:29.928Z,7.47
2023-01-13T11:10:36.389Z,7.46
2023-01-13T11:13:41.469Z,7.51
2023-01-13T11:16:53.060Z,7.54
2023-01-13T11:20:04.247Z,7.56
2023-01-13T11:23:16.028Z,7.51
2023-01-13T11:26:23.901Z,7.45
2023-01-13T11:29:29.725Z,7.41
2023-01-13T11:32:47.138Z,7.42
2023-01-13T11:36:03.271Z,7.40
2023-01-13T11:39:18.437Z,7.38
2023-01-13T11:42:26.281Z,7.37
2023-01-13T11:45:40.699Z,7.33
2023-01-13T11:48:45.589Z,7.43
2023-01-13T11:52:00.411Z,7.41
2023-01-13T11:55:13.660Z,7.50
2023-01-13T11:58:50.824Z,7.55
2023-01-13T12:02:04.119Z,7.49
2023-01-13T12:05:16.742Z,7.43
2023-01-13T12:08:27.525Z,7.43
2023-01-13T12:11:40.041Z,7.43
2023-01-13T12:14:48.714Z,7.36
2023-01-13T12:18:01.371Z,7.35
2023-01-13T12:21:18.430Z,7.32
2023-01-13T12:24:24.921Z,7.31
2023-01-13T12:27:35.580Z,7.37
2023-01-13T12:30:40.913Z,7.38
2023-01-13T12:33:50.136Z,7.44
2023-01-13T12:36:57.597Z,7.43
2023-01-13T12:40:15.323Z,7.40
2023-01-13T12:43:20.767Z,7.38
2023-01-13T12:46:52.108Z,7.40
2023-01-13T12:50:36.578Z,7.26
2023-01-13T12:53:39.374Z,7.02
2023-01-13T12:56:41.659Z,6.60
2023-01-13T12:59:43.158Z,6.51
2023-01-13T13:03:19.348Z,6.54
2023-01-13T13:06:33.177Z,6.60
2023-01-13T13:09:49.230Z,6.66
2023-01-13T13:12:56.431Z,6.60
2023-01-13T13:16:39.569Z,6.66
2023-01-13T13:19:45.707Z,6.69
2023-01-13T13:22:50.862Z,6.66
2023-01-13T13:26:17.152Z,6.60
2023-01-13T13:29:40.784Z,6.68
2023-01-13T13:32:58.419Z,6.71
2023-01-13T13:36:16.975Z,6.69
2023-01-13T13:39:22.217Z,6.72
2023-01-13T13:42:27.452Z,6.73
2023-01-13T13:45:29.418Z,6.79
2023-01-13T13:48:35.351Z,6.83
2023-01-13T13:51:43.787Z,6.85
2023-01-13T13:54:54.455Z,6.84
2023-01-13T13:57:57.605Z,6.92
2023-01-13T14:00:59.697Z,6.87
2023-01-13T14:04:07.310Z,6.95
2023-01-13T14:07:16.489Z,6.99
2023-01-13T14:10:20.403Z,6.92
2023-01-13T14:13:27.168Z,6.99
2023-01-13T14:16:28.660Z,6.95
2023-01-13T14:19:33.807Z,6.94
2023-01-13T14:22:36.209Z,6.92
2023-01-13T14:25:39.686Z,6.89
2023-01-13T14:28:42.626Z,6.96
2023-01-13T14:31:44.238Z,6.85
2023-01-13T14:34:45.833Z,6.88
2023-01-13T14:38:08.192Z,6.90
2023-01-13T14:41:12.212Z,6.90
2023-01-13T14:44:22.626Z,6.93
2023-01-13T14:47:25.756Z,6.88
2023-01-13T14:50:29.386Z,6.90
2023-01-13T14:53:38.409Z,6.84
2023-01-13T14:56:56.242Z,6.83
2023-01-13T15:00:06.314Z,6.84
2023-01-13T15:03:11.363Z,6.78
2023-01-13T15:06:22.493Z,6.84
2023-01-13T15:09:25.609Z,6.82
2023-01-13T15:12:32.304Z,6.81
2023-01-13T15:15:37.088Z,6.77
2023-01-13T15:18:38.948Z,6.72
2023-01-13T15:21:40.574Z,6.68
2023-01-13T15:24:42.070Z,6.66
2023-01-13T15:27:45.966Z,6.61
2023-01-13T15:30:49.935Z,6.66
2023-01-13T15:33:57.755Z,6.71
2023-01-13T15:36:59.230Z,6.77
2023-01-13T15:40:15.467Z,6.77
2023-01-13T15:43:18.273Z,6.81
2023-01-13T15:46:22.155Z,6.68
2023-01-13T15:49:26.814Z,6.52
2023-01-13T15:52:28.303Z,6.58
2023-01-13T15:55:37.464Z,6.71
2023-01-13T15:58:39.079Z,6.70
2023-01-13T16:01:42.020Z,6.62
2023-01-13T16:04:47.556Z,6.55
2023-01-13T16:07:51.851Z,6.57
2023-01-13T16:10:53.291Z,6.50
2023-01-13T16:14:01.398Z,6.44
2023-01-13T16:17:14.600Z,6.44
2023-01-13T16:20:19.864Z,6.46
2023-01-13T16:23:22.130Z,6.59
2023-01-13T16:26:29.200Z,6.49
2023-01-13T16:29:30.691Z,6.42
2023-01-13T16:32:33.508Z,6.34
2023-01-13T16:35:35.023Z,6.36
2023-01-13T16:38:36.481Z,6.32
2023-01-13T16:41:38.033Z,6.25
2023-01-13T16:44:39.548Z,6.27
2023-01-13T16:47:42.485Z,6.32
2023-01-13T16:50:44.260Z,6.32
2023-01-13T16:53:49.479Z,6.34
2023-01-13T16:56:50.951Z,6.34
2023-01-13T16:59:52.435Z,6.27
2023-01-13T17:02:55.280Z,6.23
2023-01-13T17:06:08.367Z,6.24
2023-01-13T17:09:14.778Z,6.24
2023-01-13T17:12:16.111Z,6.18
2023-01-13T17:15:26.903Z,6.22
2023-01-13T17:18:29.844Z,6.18
2023-01-13T17:21:31.558Z,6.13
2023-01-13T17:24:32.999Z,6.15
2023-01-13T17:27:41.450Z,6.13
2023-01-13T17:30:49.737Z,6.15
2023-01-13T17:33:52.628Z,6.13
2023-01-13T17:36:54.080Z,6.12
2023-01-13T17:40:00.265Z,6.14
2023-01-13T17:43:01.710Z,6.08
2023-01-13T17:46:14.020Z,6.11
2023-01-13T17:49:18.432Z,6.09
2023-01-13T17:52:24.101Z,6.09
2023-01-13T17:55:25.603Z,5.82
2023-01-13T17:58:27.106Z,5.70
2023-01-13T18:01:32.868Z,5.69
2023-01-13T18:04:35.728Z,5.59
2023-01-13T18:07:37.226Z,5.66
2023-01-13T18:10:38.703Z,5.67
2023-01-13T18:13:42.987Z,5.73
2023-01-13T18:16:44.616Z,5.74
2023-01-13T18:19:47.471Z,5.77
2023-01-13T18:22:48.923Z,5.79
2023-01-13T18:25:55.861Z,5.78
2023-01-13T18:29:03.988Z,5.57
2023-01-13T18:32:06.087Z,5.55
2023-01-13T18:35:09.480Z,5.55
2023-01-13T18:38:14.694Z,5.41
2023-01-13T18:41:16.542Z,5.24
2023-01-13T18:44:18.317Z,5.41
2023-01-13T18:47:20.057Z,5.22
2023-01-13T18:50:23.321Z,5.29
2023-01-13T18:53:24.763Z,5.34
2023-01-13T18:56:26.236Z,5.38
2023-01-13T18:59:27.966Z,5.52
2023-01-13T19:02:36.772Z,5.64
2023-01-13T19:05:39.582Z,5.74
2023-01-13T19:08:42.703Z,5.71
2023-01-13T19:11:54.946Z,5.89
2023-01-13T19:14:57.056Z,5.90
2023-01-13T19:18:04.422Z,5.97
2023-01-13T19:21:07.559Z,6.02
2023-01-13T19:24:09.099Z,6.01
2023-01-13T19:27:16.147Z,5.78
2023-01-13T19:30:21.779Z,5.91
2023-01-13T19:33:30.860Z,6.08
2023-01-13T19:36:33.770Z,6.02
2023-01-13T19:39:35.639Z,6.13
2023-01-13T19:42:43.747Z,6.12
2023-01-13T19:45:45.296Z,6.03
2023-01-13T19:48:46.897Z,5.98
2023-01-13T19:51:50.781Z,6.01
2023-01-13T19:54:52.229Z,6.12
2023-01-13T19:57:53.873Z,6.08
2023-01-13T20:00:55.914Z,6.08
2023-01-13T20:03:57.778Z,6.16
2023-01-13T20:07:08.280Z,6.20
2023-01-13T20:10:16.485Z,6.25
2023-01-13T20:13:17.967Z,6.29
2023-01-13T20:16:19.462Z,6.34
2023-01-13T20:19:21.048Z,6.25
2023-01-13T20:22:23.836Z,6.33
2023-01-13T20:25:25.845Z,6.35
2023-01-13T20:28:27.358Z,6.42
2023-01-13T20:31:33.147Z,6.41
2023-01-13T20:34:34.864Z,6.36
2023-01-13T20:37:40.204Z,6.33
2023-01-13T20:40:41.850Z,6.39
2023-01-13T20:43:43.424Z,6.42
2023-01-13T20:46:50.866Z,6.41
2023-01-13T20:49:52.405Z,6.44
2023-01-13T20:52:55.223Z,6.44
2023-01-13T20:55:56.858Z,6.38
2023-01-13T20:58:58.427Z,6.35
2023-01-13T21:02:01.062Z,6.40
2023-01-13T21:05:02.644Z,6.32
2023-01-13T21:08:06.450Z,6.31
2023-01-13T21:11:07.887Z,6.12
2023-01-13T21:14:13.724Z,6.10
2023-01-13T21:17:15.297Z,6.03
2023-01-13T21:20:16.978Z,5.90
2023-01-13T21:23:19.754Z,5.74
2023-01-13T21:26:21.959Z,5.72
2023-01-13T21:29:23.456Z,5.74
2023-01-13T21:32:24.987Z,5.82
2023-01-13T21:35:32.808Z,5.85
2023-01-13T21:38:35.664Z,5.90
2023-01-13T21:41:37.197Z,5.93
2023-01-13T21:44:38.673Z,5.94
2023-01-13T21:47:40.138Z,5.95
2023-01-13T21:50:41.616Z,5.88
2023-01-13T21:53:44.668Z,5.81
2023-01-13T21:56:47.597Z,5.74
2023-01-13T21:59:49.098Z,5.69
2023-01-13T22:02:50.866Z,5.64
2023-01-13T22:05:55.599Z,5.59
2023-01-13T22:08:58.404Z,5.52
2023-01-13T22:11:59.852Z,5.56
2023-01-13T22:15:09.495Z,5.61
2023-01-13T22:18:14.328Z,5.53
2023-01-13T22:21:16.155Z,5.52
2023-01-13T22:24:19.008Z,5.55
2023-01-13T22:27:21.953Z,5.54
2023-01-13T22:30:23.422Z,5.51
2023-01-13T22:33:27.462Z,5.42
2023-01-13T22:36:29.053Z,5.31
2023-01-13T22:39:31.897Z,5.19
2023-01-13T22:42:36.555Z,5.30
2023-01-13T22:45:38.087Z,5.35
2023-01-13T22:48:40.076Z,5.33
2023-01-13T22:51:41.486Z,5.40
2023-01-13T22:54:44.313Z,5.43
2023-01-13T22:57:48.336Z,5.48
2023-01-13T23:00:50.162Z,5.40
2023-01-13T23:03:52.178Z,5.43
2023-01-13T23:06:53.527Z,5.42
2023-01-13T23:09:56.360Z,5.50
2023-01-13T23:13:04.619Z,5.53
2023-01-13T23:16:08.305Z,5.55
2023-01-13T23:19:10.511Z,5.55
2023-01-13T23:22:11.958Z,5.59
2023-01-13T23:25:14.952Z,5.54
2023-01-13T23:28:16.507Z,5.55
2023-01-13T23:31:19.744Z,5.50
2023-01-13T23:34:21.276Z,5.48
2023-01-13T23:37:22.764Z,5.49
2023-01-13T23:40:25.586Z,5.59
2023-01-13T23:43:27.103Z,5.69
2023-01-13T23:46:29.906Z,5.66
2023-01-13T23:49:31.426Z,5.62
2023-01-13T23:52:32.985Z,5.61
2023-01-13T23:55:35.941Z,5.60
2023-01-13T23:58:37.435Z,5.51
